createdAt,value
2018-07-27T00:04:05.103Z,19.90
2018-07-27T00:06:33.716Z,19.90
2018-07-27T00:09:02.253Z,19.90
2018-07-27T00:11:30.777Z,19.90
2018-07-27T00:13:59.266Z,19.80
2018-07-27T00:16:27.802Z,19.80
2018-07-27T00:18:56.258Z,19.80
2018-07-27T00:21:24.806Z,19.70
2018-07-27T00:26:21.658Z,19.70
2018-07-27T00:28:50.167Z,19.70
2018-07-27T00:31:18.693Z,19.70
2018-07-27T00:33:47.428Z,19.60
2018-07-27T00:38:44.230Z,19.50
2018-07-27T00:41:12.704Z,19.50
2018-07-27T00:43:41.294Z,19.50
2018-07-27T00:46:09.788Z,19.40
2018-07-27T00:48:38.274Z,19.40
2018-07-27T00:51:06.764Z,19.40
2018-07-27T00:53:35.235Z,19.30
2018-07-27T00:56:03.784Z,19.40
2018-07-27T00:58:32.263Z,19.30
2018-07-27T01:01:00.785Z,19.30
2018-07-27T01:03:29.280Z,19.30
2018-07-27T01:05:57.751Z,19.30
2018-07-27T01:08:26.267Z,19.30
2018-07-27T01:10:54.931Z,19.30
2018-07-27T01:13:23.427Z,19.30
2018-07-27T01:15:51.954Z,19.30
2018-07-27T01:18:20.430Z,19.30
2018-07-27T01:20:48.970Z,19.20
2018-07-27T01:23:17.574Z,19.20
2018-07-27T01:25:46.115Z,19.20
2018-07-27T01:28:14.592Z,19.10
2018-07-27T01:30:43.189Z,19.10
2018-07-27T01:33:11.708Z,19.00
2018-07-27T01:35:40.256Z,18.90
2018-07-27T01:38:08.776Z,18.80
2018-07-27T01:40:37.248Z,18.70
2018-07-27T01:43:05.895Z,18.70
2018-07-27T01:45:34.350Z,18.80
2018-07-27T01:48:02.848Z,18.70
2018-07-27T01:50:31.438Z,18.70
2018-07-27T01:52:59.992Z,18.70
2018-07-27T01:55:28.458Z,18.80
2018-07-27T01:57:57.114Z,18.70
2018-07-27T02:00:25.675Z,18.70
2018-07-27T02:02:54.411Z,18.50
2018-07-27T02:05:22.940Z,18.40
2018-07-27T02:07:52.020Z,18.40
2018-07-27T02:10:20.641Z,18.30
2018-07-27T02:12:49.167Z,18.40
2018-07-27T02:15:17.823Z,18.40
2018-07-27T02:17:46.286Z,18.40
2018-07-27T02:20:14.877Z,18.40
2018-07-27T02:25:11.665Z,18.40
2018-07-27T02:27:40.127Z,18.40
2018-07-27T02:30:08.701Z,18.40
2018-07-27T02:32:37.193Z,18.50
2018-07-27T02:35:06.191Z,18.50
2018-07-27T02:40:03.157Z,18.50
2018-07-27T02:42:31.649Z,18.60
2018-07-27T02:45:00.158Z,18.60
2018-07-27T02:47:28.661Z,18.60
2018-07-27T02:49:57.233Z,18.60
2018-07-27T02:52:25.713Z,18.60
2018-07-27T02:54:54.174Z,18.60
2018-07-27T02:57:22.758Z,18.60
2018-07-27T02:59:51.289Z,18.70
2018-07-27T03:02:20.379Z,18.70
2018-07-27T03:04:48.862Z,18.60
2018-07-27T03:07:18.372Z,18.70
2018-07-27T03:09:46.988Z,18.70
2018-07-27T03:12:15.500Z,18.60
2018-07-27T03:14:43.966Z,18.70
2018-07-27T03:17:12.571Z,18.70
2018-07-27T03:19:41.038Z,18.60
2018-07-27T03:22:09.572Z,18.60
2018-07-27T03:24:38.162Z,18.60
2018-07-27T03:29:35.360Z,18.50
2018-07-27T03:32:03.947Z,18.50
2018-07-27T03:34:32.432Z,18.50
2018-07-27T03:37:01.018Z,18.50
2018-07-27T03:39:30.322Z,18.50
2018-07-27T03:41:58.827Z,18.50
2018-07-27T03:44:27.401Z,18.50
2018-07-27T03:46:55.851Z,18.50
2018-07-27T03:49:24.302Z,18.50
2018-07-27T03:51:52.840Z,18.50
2018-07-27T03:54:21.338Z,18.40
2018-07-27T03:56:49.848Z,18.40
2018-07-27T03:59:18.417Z,18.40
2018-07-27T04:01:46.897Z,18.60
2018-07-27T04:04:15.590Z,18.40
2018-07-27T04:06:44.076Z,18.40
2018-07-27T04:09:12.574Z,18.50
2018-07-27T04:11:41.315Z,18.40
2018-07-27T04:14:10.019Z,18.40
2018-07-27T04:16:38.535Z,18.40
2018-07-27T04:19:07.423Z,18.40
2018-07-27T04:21:36.014Z,18.50
2018-07-27T04:24:04.587Z,18.50
2018-07-27T04:26:33.190Z,18.50
2018-07-27T04:29:01.877Z,18.50
2018-07-27T04:31:30.465Z,18.50
2018-07-27T04:33:58.984Z,18.50
2018-07-27T04:36:27.643Z,18.50
2018-07-27T04:38:56.122Z,18.40
2018-07-27T04:41:24.712Z,18.30
2018-07-27T04:43:53.304Z,18.30
2018-07-27T04:46:21.846Z,18.40
2018-07-27T04:48:50.316Z,18.40
2018-07-27T04:51:18.962Z,18.40
2018-07-27T04:53:47.476Z,18.40
2018-07-27T04:56:16.142Z,18.50
2018-07-27T04:58:44.687Z,18.60
2018-07-27T05:01:13.313Z,18.70
2018-07-27T05:03:41.940Z,18.80
2018-07-27T05:06:10.586Z,18.90
2018-07-27T05:08:44.311Z,19.00
2018-07-27T05:11:12.871Z,19.00
2018-07-27T05:13:41.371Z,19.00
2018-07-27T05:16:10.640Z,19.10
2018-07-27T05:18:39.368Z,19.10
2018-07-27T05:21:08.351Z,19.20
2018-07-27T05:23:37.840Z,19.30
2018-07-27T05:28:34.641Z,19.40
2018-07-27T05:31:03.155Z,19.50
2018-07-27T05:33:31.714Z,19.60
2018-07-27T05:36:00.204Z,19.60
2018-07-27T05:38:28.757Z,19.70
2018-07-27T05:40:57.396Z,19.80
2018-07-27T05:43:25.959Z,19.90
2018-07-27T05:45:54.531Z,19.90
2018-07-27T05:48:23.078Z,20.00
2018-07-27T05:50:52.235Z,20.00
2018-07-27T05:53:20.889Z,20.10
2018-07-27T05:55:49.400Z,20.10
2018-07-27T05:58:17.896Z,20.00
2018-07-27T06:00:46.586Z,19.90
2018-07-27T06:03:15.130Z,19.90
2018-07-27T06:05:43.657Z,19.90
2018-07-27T06:08:12.114Z,20.00
2018-07-27T06:10:40.630Z,20.00
2018-07-27T06:13:09.218Z,20.10
2018-07-27T06:15:37.771Z,20.20
2018-07-27T06:18:06.645Z,20.40
2018-07-27T06:20:35.308Z,20.40
2018-07-27T06:23:03.847Z,20.40
2018-07-27T06:25:32.396Z,20.40
2018-07-27T06:28:00.837Z,20.50
2018-07-27T06:30:29.373Z,20.60
2018-07-27T06:32:57.883Z,20.60
2018-07-27T06:37:54.585Z,20.80
2018-07-27T06:40:23.078Z,20.80
2018-07-27T06:42:51.571Z,20.80
2018-07-27T06:45:20.244Z,20.90
2018-07-27T06:47:48.787Z,21.00
2018-07-27T06:50:17.281Z,21.10
2018-07-27T06:52:45.814Z,21.20
2018-07-27T06:55:14.314Z,21.30
2018-07-27T06:57:42.818Z,21.50
2018-07-27T07:00:11.387Z,21.60
2018-07-27T07:02:39.896Z,21.70
2018-07-27T07:05:08.427Z,21.70
2018-07-27T07:07:36.965Z,21.80
2018-07-27T07:10:06.131Z,21.90
2018-07-27T07:12:34.630Z,22.00
2018-07-27T07:15:03.208Z,22.00
2018-07-27T07:17:31.697Z,22.00
2018-07-27T07:20:00.246Z,22.00
2018-07-27T07:22:28.718Z,22.00
2018-07-27T07:24:57.791Z,21.90
2018-07-27T07:27:26.760Z,21.90
2018-07-27T07:29:55.303Z,22.00
2018-07-27T07:32:23.800Z,22.00
2018-07-27T07:34:52.299Z,22.00
2018-07-27T07:37:21.176Z,22.20
2018-07-27T07:39:49.614Z,22.20
2018-07-27T07:42:18.111Z,22.20
2018-07-27T07:44:46.590Z,22.30
2018-07-27T07:47:15.059Z,22.50
2018-07-27T07:49:43.552Z,22.60
2018-07-27T07:52:12.129Z,22.70
2018-07-27T07:54:40.740Z,22.80
2018-07-27T07:57:09.306Z,22.80
2018-07-27T07:59:37.799Z,22.90
2018-07-27T08:02:06.576Z,23.10
2018-07-27T08:04:35.270Z,23.20
2018-07-27T08:07:04.391Z,23.30
2018-07-27T08:09:32.926Z,23.40
2018-07-27T08:12:01.672Z,23.50
2018-07-27T08:14:30.142Z,23.70
2018-07-27T08:16:58.650Z,23.80
2018-07-27T08:19:27.608Z,23.80
2018-07-27T08:21:56.146Z,23.90
2018-07-27T08:24:24.674Z,24.00
2018-07-27T08:29:43.100Z,24.20
2018-07-27T08:32:12.565Z,24.20
2018-07-27T08:34:43.380Z,24.10
2018-07-27T08:37:11.894Z,24.10
2018-07-27T08:39:41.550Z,24.10
2018-07-27T08:42:10.888Z,24.10
2018-07-27T08:44:41.404Z,24.10
2018-07-27T08:49:38.587Z,24.10
2018-07-27T08:52:08.774Z,24.30
2018-07-27T08:57:07.477Z,24.60
2018-07-27T08:59:35.999Z,24.60
2018-07-27T09:04:32.887Z,24.80
2018-07-27T09:07:01.478Z,24.90
2018-07-27T09:09:29.963Z,25.00
2018-07-27T09:11:58.462Z,25.10
2018-07-27T09:14:26.950Z,25.10
2018-07-27T09:16:55.451Z,25.10
2018-07-27T09:19:23.916Z,25.20
2018-07-27T09:21:52.477Z,25.20
2018-07-27T09:24:21.177Z,25.40
2018-07-27T09:26:49.500Z,25.60
2018-07-27T09:29:18.037Z,25.70
2018-07-27T09:34:14.831Z,25.80
2018-07-27T09:36:43.238Z,25.90
2018-07-27T09:39:12.094Z,25.90
2018-07-27T09:44:09.082Z,26.10
2018-07-27T09:46:37.687Z,26.20
2018-07-27T09:49:06.203Z,26.30
2018-07-27T09:51:34.748Z,26.30
2018-07-27T09:54:03.391Z,26.40
2018-07-27T09:59:00.102Z,26.30
2018-07-27T10:01:29.398Z,26.40
2018-07-27T10:03:57.874Z,26.40
2018-07-27T10:06:26.364Z,26.40
2018-07-27T10:08:54.840Z,26.50
2018-07-27T10:11:23.427Z,26.50
2018-07-27T10:13:52.031Z,26.50
2018-07-27T10:16:20.581Z,26.60
2018-07-27T10:21:17.487Z,26.70
2018-07-27T10:23:46.178Z,26.80
2018-07-27T10:26:14.651Z,26.80
2018-07-27T10:28:43.123Z,26.90
2018-07-27T10:31:11.653Z,26.90
2018-07-27T10:33:40.200Z,26.90
2018-07-27T10:36:08.735Z,26.90
2018-07-27T10:38:37.242Z,26.80
2018-07-27T10:41:05.829Z,26.80
2018-07-27T10:43:34.301Z,26.90
2018-07-27T10:46:02.888Z,27.00
2018-07-27T10:48:31.541Z,27.10
2018-07-27T10:51:00.108Z,27.10
2018-07-27T10:53:28.606Z,27.10
2018-07-27T10:58:25.303Z,27.20
2018-07-27T11:00:53.924Z,27.30
2018-07-27T11:03:22.532Z,27.30
2018-07-27T11:05:51.074Z,27.30
2018-07-27T11:08:19.591Z,27.30
2018-07-27T11:13:16.319Z,27.40
2018-07-27T11:15:44.840Z,27.40
2018-07-27T11:18:13.343Z,27.40
2018-07-27T11:20:41.827Z,27.40
2018-07-27T11:25:38.829Z,27.30
2018-07-27T11:28:07.500Z,27.40
2018-07-27T11:30:37.017Z,27.50
2018-07-27T11:33:05.587Z,27.60
2018-07-27T11:35:34.089Z,27.60
2018-07-27T11:40:30.882Z,27.70
2018-07-27T11:42:59.430Z,27.70
2018-07-27T11:45:28.044Z,27.70
2018-07-27T11:47:56.607Z,27.70
2018-07-27T11:52:53.391Z,27.70
2018-07-27T11:55:21.968Z,27.80
2018-07-27T12:00:18.794Z,27.90
2018-07-27T12:02:47.315Z,28.00
2018-07-27T12:05:15.802Z,27.90
2018-07-27T12:07:44.415Z,27.90
2018-07-27T12:10:13.106Z,27.80
2018-07-27T12:12:41.583Z,27.80
2018-07-27T12:15:10.433Z,27.70
2018-07-27T12:17:38.772Z,27.70
2018-07-27T12:20:07.297Z,27.60
2018-07-27T12:22:35.813Z,27.70
2018-07-27T12:25:04.334Z,27.70
2018-07-27T12:27:32.841Z,27.60
2018-07-27T12:30:01.451Z,27.70
2018-07-27T12:32:29.966Z,27.70
2018-07-27T12:34:58.561Z,27.80
2018-07-27T12:37:27.064Z,27.90
2018-07-27T12:39:55.499Z,28.00
2018-07-27T12:42:24.002Z,28.10
2018-07-27T12:47:20.804Z,28.30
2018-07-27T12:49:49.306Z,28.30
2018-07-27T12:52:18.049Z,28.30
2018-07-27T12:57:14.731Z,28.10
2018-07-27T12:59:43.203Z,28.20
2018-07-27T13:02:11.817Z,28.20
2018-07-27T13:04:40.411Z,28.20
2018-07-27T13:07:09.604Z,28.30
2018-07-27T13:09:38.194Z,28.30
2018-07-27T13:12:06.782Z,28.30
2018-07-27T13:17:03.774Z,28.50
2018-07-27T13:19:32.322Z,28.40
2018-07-27T13:22:01.013Z,28.50
2018-07-27T13:26:58.078Z,28.50
2018-07-27T13:31:56.173Z,28.50
2018-07-27T13:34:29.986Z,28.40
2018-07-27T13:36:58.533Z,28.30
2018-07-27T13:39:27.012Z,28.30
2018-07-27T13:41:55.681Z,28.40
2018-07-27T13:44:24.230Z,28.40
2018-07-27T13:49:20.904Z,28.50
2018-07-27T13:51:49.440Z,28.40
2018-07-27T13:54:17.993Z,28.30
2018-07-27T13:56:47.316Z,28.20
2018-07-27T13:59:16.414Z,28.20
2018-07-27T14:01:45.175Z,28.20
2018-07-27T14:04:13.685Z,28.20
2018-07-27T14:06:42.187Z,28.30
2018-07-27T14:09:11.979Z,28.30
2018-07-27T14:11:41.078Z,28.30
2018-07-27T14:14:09.577Z,28.30
2018-07-27T14:16:38.459Z,28.30
2018-07-27T14:19:07.865Z,28.20
2018-07-27T14:21:36.449Z,28.20
2018-07-27T14:24:04.975Z,28.20
2018-07-27T14:26:33.425Z,28.20
2018-07-27T14:29:01.911Z,28.20
2018-07-27T14:31:30.522Z,28.20
2018-07-27T14:33:59.088Z,28.10
2018-07-27T14:36:27.658Z,28.00
2018-07-27T14:38:56.863Z,28.00
2018-07-27T14:41:25.704Z,28.00
2018-07-27T14:43:54.264Z,28.10
2018-07-27T14:46:22.756Z,28.10
2018-07-27T14:48:51.249Z,28.10
2018-07-27T14:51:20.475Z,28.10
2018-07-27T14:53:48.969Z,28.20
2018-07-27T15:01:14.004Z,28.20
2018-07-27T15:03:42.619Z,28.20
2018-07-27T15:08:39.325Z,28.10
2018-07-27T15:11:08.142Z,28.00
2018-07-27T15:13:36.616Z,28.00
2018-07-27T15:16:05.175Z,27.90
2018-07-27T15:18:34.623Z,27.90
2018-07-27T15:21:03.266Z,27.90
2018-07-27T15:28:28.226Z,27.90
2018-07-27T15:30:57.355Z,27.90
2018-07-27T15:33:25.927Z,27.90
2018-07-27T15:35:54.422Z,28.00
2018-07-27T15:38:22.988Z,27.90
2018-07-27T15:40:51.679Z,27.90
2018-07-27T15:43:20.195Z,27.90
2018-07-27T15:45:49.071Z,28.00
2018-07-27T15:48:17.665Z,28.00
2018-07-27T15:50:46.418Z,28.00
2018-07-27T15:53:14.911Z,28.00
2018-07-27T15:55:43.429Z,27.90
2018-07-27T15:58:12.005Z,27.80
2018-07-27T16:00:40.544Z,27.70
2018-07-27T16:05:37.262Z,27.70
2018-07-27T16:08:05.827Z,27.70
2018-07-27T16:10:34.396Z,27.70
2018-07-27T16:13:03.016Z,27.70
2018-07-27T16:15:32.220Z,27.60
2018-07-27T16:18:00.735Z,27.60
2018-07-27T16:20:29.293Z,27.60
2018-07-27T16:22:57.852Z,27.50
2018-07-27T16:27:54.511Z,27.50
2018-07-27T16:30:23.118Z,27.50
2018-07-27T16:32:51.617Z,27.60
2018-07-27T16:35:20.127Z,27.60
2018-07-27T16:37:48.671Z,27.60
2018-07-27T16:42:45.468Z,27.50
2018-07-27T16:45:14.043Z,27.50
2018-07-27T16:47:42.531Z,27.40
2018-07-27T16:50:11.043Z,27.40
2018-07-27T16:52:39.614Z,27.30
2018-07-27T16:55:08.972Z,27.30
2018-07-27T17:00:06.039Z,27.30
2018-07-27T17:02:34.789Z,27.20
2018-07-27T17:05:03.347Z,27.20
2018-07-27T17:07:31.959Z,27.20
2018-07-27T17:10:00.546Z,27.20
2018-07-27T17:12:29.115Z,27.20
2018-07-27T17:14:58.325Z,27.20
2018-07-27T17:17:26.881Z,27.10
2018-07-27T17:22:23.710Z,27.10
2018-07-27T17:24:52.228Z,27.10
2018-07-27T17:29:48.997Z,27.00
2018-07-27T17:34:45.778Z,27.00
2018-07-27T17:37:14.395Z,26.90
2018-07-27T17:39:42.855Z,26.90
2018-07-27T17:42:11.375Z,26.90
2018-07-27T17:44:39.955Z,26.90
2018-07-27T17:47:08.590Z,26.90
2018-07-27T17:49:37.039Z,26.90
2018-07-27T17:52:05.592Z,26.80
2018-07-27T17:54:34.226Z,26.80
2018-07-27T17:57:02.748Z,26.70
2018-07-27T17:59:31.264Z,26.70
2018-07-27T18:01:59.796Z,26.60
2018-07-27T18:04:28.397Z,26.60
2018-07-27T18:06:57.285Z,26.50
2018-07-27T18:09:25.834Z,26.50
2018-07-27T18:11:54.323Z,26.50
2018-07-27T18:14:22.865Z,26.50
2018-07-27T18:19:19.794Z,26.50
2018-07-27T18:21:48.295Z,26.40
2018-07-27T18:24:16.818Z,26.40
2018-07-27T18:26:45.406Z,26.40
2018-07-27T18:29:14.030Z,26.30
2018-07-27T18:31:42.713Z,26.30
2018-07-27T18:34:11.632Z,26.20
2018-07-27T18:36:40.173Z,26.20
2018-07-27T18:39:11.658Z,26.10
2018-07-27T18:41:40.424Z,26.10
2018-07-27T18:44:09.347Z,26.00
2018-07-27T18:46:39.491Z,26.00
2018-07-27T18:49:08.266Z,26.00
2018-07-27T18:51:36.854Z,25.90
2018-07-27T18:54:05.634Z,25.90
2018-07-27T18:56:34.084Z,25.90
2018-07-27T19:01:31.643Z,25.70
2018-07-27T19:04:00.160Z,25.70
2018-07-27T19:06:28.673Z,25.70
2018-07-27T19:08:57.222Z,25.60
2018-07-27T19:13:55.734Z,25.50
2018-07-27T19:18:52.529Z,25.40
2018-07-27T19:21:21.121Z,25.30
2018-07-27T19:23:49.675Z,25.30
2018-07-27T19:26:18.222Z,25.20
2018-07-27T19:28:46.816Z,25.10
2018-07-27T19:31:15.403Z,25.10
2018-07-27T19:33:44.064Z,24.90
2018-07-27T19:36:12.787Z,24.90
2018-07-27T19:38:41.321Z,24.80
2018-07-27T19:41:09.917Z,24.70
2018-07-27T19:43:38.527Z,24.70
2018-07-27T19:46:07.826Z,24.60
2018-07-27T19:48:36.357Z,24.60
2018-07-27T19:51:04.907Z,24.50
2018-07-27T19:53:33.426Z,24.50
2018-07-27T19:56:02.091Z,24.40
2018-07-27T19:58:31.835Z,24.40
2018-07-27T20:01:00.398Z,24.30
2018-07-27T20:03:29.070Z,24.30
2018-07-27T20:05:57.616Z,24.20
2018-07-27T20:10:54.716Z,24.10
2018-07-27T20:13:23.343Z,24.10
2018-07-27T20:15:52.349Z,24.10
2018-07-27T20:18:20.982Z,24.00
2018-07-27T20:20:49.610Z,24.00
2018-07-27T20:23:18.293Z,24.00
2018-07-27T20:25:47.509Z,24.00
2018-07-27T20:28:16.004Z,23.90
2018-07-27T20:30:44.568Z,23.90
2018-07-27T20:33:13.081Z,23.90
2018-07-27T20:35:41.721Z,23.80
2018-07-27T20:38:10.583Z,23.80
2018-07-27T20:40:39.311Z,23.70
2018-07-27T20:43:07.874Z,23.70
2018-07-27T20:45:36.445Z,23.70
2018-07-27T20:48:05.310Z,23.70
2018-07-27T20:50:33.824Z,23.60
2018-07-27T20:53:02.483Z,23.60
2018-07-27T20:55:31.135Z,23.50
2018-07-27T20:57:59.723Z,23.50
2018-07-27T21:00:28.505Z,23.40
2018-07-27T21:05:25.268Z,23.40
2018-07-27T21:12:50.969Z,23.20
2018-07-27T21:15:19.464Z,23.20
2018-07-27T21:17:48.206Z,23.20
2018-07-27T21:20:16.925Z,23.10
2018-07-27T21:22:46.229Z,23.10
2018-07-27T21:25:14.715Z,23.00
2018-07-27T21:27:43.303Z,23.00
2018-07-27T21:30:11.790Z,22.90
2018-07-27T21:32:40.373Z,22.90
2018-07-27T21:35:09.038Z,22.90
2018-07-27T21:37:37.567Z,22.80
2018-07-27T21:40:06.563Z,22.70
2018-07-27T21:42:35.007Z,22.70
2018-07-27T21:47:31.816Z,22.70
2018-07-27T21:50:00.404Z,22.60
2018-07-27T21:52:28.882Z,22.60
2018-07-27T21:54:57.424Z,22.60
2018-07-27T21:57:25.938Z,22.50
2018-07-27T21:59:54.430Z,22.40
2018-07-27T22:02:23.124Z,22.40
2018-07-27T22:04:51.809Z,22.30
2018-07-27T22:07:20.316Z,22.30
2018-07-27T22:09:48.889Z,22.20
2018-07-27T22:12:17.791Z,22.20
2018-07-27T22:14:46.328Z,22.10
2018-07-27T22:17:14.840Z,22.10
2018-07-27T22:19:43.329Z,22.10
2018-07-27T22:22:11.851Z,22.10
2018-07-27T22:24:40.394Z,22.00
2018-07-27T22:27:08.967Z,21.90
2018-07-27T22:29:37.459Z,21.90
2018-07-27T22:32:06.275Z,21.80
2018-07-27T22:34:34.765Z,21.80
2018-07-27T22:37:03.347Z,21.70
2018-07-27T22:39:31.908Z,21.70
2018-07-27T22:42:00.402Z,21.70
2018-07-27T22:44:28.922Z,21.70
2018-07-27T22:46:57.456Z,21.70
2018-07-27T22:49:25.980Z,21.60
2018-07-27T22:51:54.428Z,21.50
2018-07-27T22:54:22.961Z,21.40
2018-07-27T22:56:51.434Z,21.40
2018-07-27T22:59:20.663Z,21.30
2018-07-27T23:01:49.168Z,21.30
2018-07-27T23:04:17.689Z,21.30
2018-07-27T23:06:46.224Z,21.20
2018-07-27T23:09:14.750Z,21.10
2018-07-27T23:14:12.164Z,21.00
2018-07-27T23:16:40.654Z,21.00
2018-07-27T23:19:09.120Z,20.90
2018-07-27T23:21:37.634Z,20.90
2018-07-27T23:24:06.202Z,20.80
2018-07-27T23:26:34.649Z,20.80
2018-07-27T23:29:03.202Z,20.70
2018-07-27T23:31:31.678Z,20.70
2018-07-27T23:34:00.163Z,20.60
2018-07-27T23:36:28.555Z,20.50
2018-07-27T23:38:57.062Z,20.50
2018-07-27T23:41:25.536Z,20.50
2018-07-27T23:43:54.046Z,20.50
2018-07-27T23:46:22.547Z,20.40
2018-07-27T23:48:51.084Z,20.30
2018-07-27T23:51:19.607Z,20.30
2018-07-27T23:53:48.261Z,20.30
2018-07-27T23:56:16.854Z,20.20
2018-07-27T23:58:45.331Z,20.20
